sensor_id;sensor_type;location;lat;lon;timestamp;P1;durP1;ratioP1;P2;durP2;ratioP2
61373;SDS011;47242;48.158;-1.586;2023-03-11T05:32:26;4.00;;;3.13;;
61373;SDS011;47242;48.158;-1.586;2023-03-11T05:34:52;6.03;;;3.00;;
61373;SDS011;47242;48.158;-1.586;2023-03-11T05:37:17;3.65;;;2.85;;
61373;SDS011;47242;48.158;-1.586;2023-03-11T05:39:43;6.65;;;3.90;;
61373;SDS011;47242;48.158;-1.586;2023-03-11T05:42:09;7.07;;;4.05;;
61373;SDS011;47242;48.158;-1.586;2023-03-11T05:44:34;4.35;;;3.15;;
61373;SDS011;47242;48.158;-1.586;2023-03-11T05:47:01;5.15;;;2.75;;
61373;SDS011;47242;48.158;-1.586;2023-03-11T05:49:27;7.18;;;3.83;;
61373;SDS011;47242;48.158;-1.586;2023-03-11T05:51:52;5.75;;;2.97;;
61373;SDS011;47242;48.158;-1.586;2023-03-11T05:54:18;6.43;;;3.20;;
61373;SDS011;47242;48.158;-1.586;2023-03-11T05:56:45;6.72;;;2.95;;
61373;SDS011;47242;48.158;-1.586;2023-03-11T05:59:12;5.40;;;3.10;;
61373;SDS011;47242;48.158;-1.586;2023-03-11T06:01:38;3.72;;;2.80;;
61373;SDS011;47242;48.158;-1.586;2023-03-11T06:04:05;2.75;;;2.45;;
61373;SDS011;47242;48.158;-1.586;2023-03-11T06:06:31;5.35;;;2.88;;
61373;SDS011;47242;48.158;-1.586;2023-03-11T06:08:57;6.35;;;3.33;;
61373;SDS011;47242;48.158;-1.586;2023-03-11T06:11:22;5.43;;;3.88;;
61373;SDS011;47242;48.158;-1.586;2023-03-11T06:13:51;4.95;;;3.25;;
61373;SDS011;47242;48.158;-1.586;2023-03-11T06:16:18;6.32;;;4.47;;
61373;SDS011;47242;48.158;-1.586;2023-03-11T06:18:44;5.82;;;3.13;;
61373;SDS011;47242;48.158;-1.586;2023-03-11T06:21:13;4.13;;;3.53;;
61373;SDS011;47242;48.158;-1.586;2023-03-11T06:23:44;5.90;;;3.25;;
61373;SDS011;47242;48.158;-1.586;2023-03-11T06:26:11;6.03;;;4.25;;
61373;SDS011;47242;48.158;-1.586;2023-03-11T06:28:40;8.15;;;4.68;;
61373;SDS011;47242;48.158;-1.586;2023-03-11T06:31:11;3.17;;;2.67;;
61373;SDS011;47242;48.158;-1.586;2023-03-11T06:33:57;6.60;;;3.53;;
61373;SDS011;47242;48.158;-1.586;2023-03-11T06:36:23;3.38;;;2.25;;
61373;SDS011;47242;48.158;-1.586;2023-03-11T06:38:52;4.90;;;3.25;;
61373;SDS011;47242;48.158;-1.586;2023-03-11T06:41:18;5.32;;;3.60;;
61373;SDS011;47242;48.158;-1.586;2023-03-11T06:43:44;7.60;;;4.88;;
61373;SDS011;47242;48.158;-1.586;2023-03-11T06:46:11;7.43;;;4.55;;
61373;SDS011;47242;48.158;-1.586;2023-03-11T06:48:39;6.03;;;4.10;;
61373;SDS011;47242;48.158;-1.586;2023-03-11T06:51:05;6.00;;;3.88;;
61373;SDS011;47242;48.158;-1.586;2023-03-11T06:53:31;9.48;;;6.07;;
61373;SDS011;47242;48.158;-1.586;2023-03-11T06:56:04;6.95;;;4.38;;
61373;SDS011;47242;48.158;-1.586;2023-03-11T06:58:35;5.32;;;3.15;;
61373;SDS011;47242;48.158;-1.586;2023-03-11T07:01:02;5.70;;;4.25;;
61373;SDS011;47242;48.158;-1.586;2023-03-11T07:03:33;4.80;;;4.28;;
61373;SDS011;47242;48.158;-1.586;2023-03-11T07:05:58;6.22;;;4.47;;
61373;SDS011;47242;48.158;-1.586;2023-03-11T07:08:24;8.30;;;5.15;;
61373;SDS011;47242;48.158;-1.586;2023-03-11T07:11:00;9.52;;;6.30;;
61373;SDS011;47242;48.158;-1.586;2023-03-11T07:16:04;9.35;;;5.82;;
61373;SDS011;47242;48.158;-1.586;2023-03-11T07:18:32;9.45;;;5.10;;
61373;SDS011;47242;48.158;-1.586;2023-03-11T07:21:03;8.40;;;5.63;;
61373;SDS011;47242;48.158;-1.586;2023-03-11T07:23:30;7.35;;;5.38;;
61373;SDS011;47242;48.158;-1.586;2023-03-11T07:25:56;6.15;;;4.78;;
61373;SDS011;47242;48.158;-1.586;2023-03-11T07:28:22;7.47;;;4.47;;
61373;SDS011;47242;48.158;-1.586;2023-03-11T07:30:49;7.53;;;4.97;;
61373;SDS011;47242;48.158;-1.586;2023-03-11T07:33:15;9.23;;;5.82;;
61373;SDS011;47242;48.158;-1.586;2023-03-11T07:35:41;7.72;;;4.47;;
61373;SDS011;47242;48.158;-1.586;2023-03-11T07:38:07;7.25;;;5.18;;
61373;SDS011;47242;48.158;-1.586;2023-03-11T07:40:33;5.95;;;4.18;;
61373;SDS011;47242;48.158;-1.586;2023-03-11T07:42:59;9.32;;;5.93;;
61373;SDS011;47242;48.158;-1.586;2023-03-11T07:45:24;7.97;;;4.80;;
61373;SDS011;47242;48.158;-1.586;2023-03-11T07:47:50;15.40;;;8.43;;
61373;SDS011;47242;48.158;-1.586;2023-03-11T07:50:16;10.80;;;6.60;;
61373;SDS011;47242;48.158;-1.586;2023-03-11T07:52:42;8.73;;;4.70;;
61373;SDS011;47242;48.158;-1.586;2023-03-11T07:55:08;7.97;;;4.20;;
61373;SDS011;47242;48.158;-1.586;2023-03-11T07:57:34;11.07;;;5.53;;
61373;SDS011;47242;48.158;-1.586;2023-03-11T07:59:59;8.15;;;3.92;;
61373;SDS011;47242;48.158;-1.586;2023-03-11T08:02:25;4.85;;;3.55;;
61373;SDS011;47242;48.158;-1.586;2023-03-11T08:04:51;6.80;;;3.83;;
61373;SDS011;47242;48.158;-1.586;2023-03-11T08:07:19;7.70;;;4.05;;
61373;SDS011;47242;48.158;-1.586;2023-03-11T08:09:45;5.70;;;4.18;;
61373;SDS011;47242;48.158;-1.586;2023-03-11T08:12:11;8.23;;;5.07;;
61373;SDS011;47242;48.158;-1.586;2023-03-11T08:14:36;11.55;;;5.80;;
61373;SDS011;47242;48.158;-1.586;2023-03-11T08:17:03;7.10;;;3.70;;
61373;SDS011;47242;48.158;-1.586;2023-03-11T08:19:29;6.18;;;4.97;;
61373;SDS011;47242;48.158;-1.586;2023-03-11T08:21:55;4.45;;;3.65;;
61373;SDS011;47242;48.158;-1.586;2023-03-11T08:24:21;6.47;;;4.60;;
61373;SDS011;47242;48.158;-1.586;2023-03-11T08:26:46;6.88;;;4.25;;
61373;SDS011;47242;48.158;-1.586;2023-03-11T08:29:12;6.80;;;3.67;;
61373;SDS011;47242;48.158;-1.586;2023-03-11T08:31:38;5.45;;;3.20;;
61373;SDS011;47242;48.158;-1.586;2023-03-11T08:34:05;7.00;;;4.13;;
61373;SDS011;47242;48.158;-1.586;2023-03-11T08:36:32;4.60;;;3.13;;
61373;SDS011;47242;48.158;-1.586;2023-03-11T08:38:58;7.53;;;4.07;;
61373;SDS011;47242;48.158;-1.586;2023-03-11T08:41:24;5.43;;;3.53;;
61373;SDS011;47242;48.158;-1.586;2023-03-11T08:43:50;5.22;;;2.88;;
61373;SDS011;47242;48.158;-1.586;2023-03-11T08:48:49;7.68;;;3.15;;
61373;SDS011;47242;48.158;-1.586;2023-03-11T08:51:15;7.03;;;4.72;;
61373;SDS011;47242;48.158;-1.586;2023-03-11T08:53:41;4.07;;;2.50;;
61373;SDS011;47242;48.158;-1.586;2023-03-11T08:56:07;7.55;;;5.38;;
61373;SDS011;47242;48.158;-1.586;2023-03-11T08:58:33;7.57;;;4.38;;
61373;SDS011;47242;48.158;-1.586;2023-03-11T09:00:58;7.18;;;3.45;;
61373;SDS011;47242;48.158;-1.586;2023-03-11T09:03:24;6.68;;;3.17;;
61373;SDS011;47242;48.158;-1.586;2023-03-11T09:06:00;3.78;;;2.75;;
61373;SDS011;47242;48.158;-1.586;2023-03-11T09:08:28;3.55;;;2.67;;
61373;SDS011;47242;48.158;-1.586;2023-03-11T09:10:54;4.47;;;2.22;;
61373;SDS011;47242;48.158;-1.586;2023-03-11T09:13:19;4.22;;;3.10;;
61373;SDS011;47242;48.158;-1.586;2023-03-11T09:15:49;4.50;;;2.00;;
61373;SDS011;47242;48.158;-1.586;2023-03-11T09:18:16;3.78;;;2.03;;
61373;SDS011;47242;48.158;-1.586;2023-03-11T09:20:41;5.00;;;3.10;;
61373;SDS011;47242;48.158;-1.586;2023-03-11T09:23:08;3.78;;;2.72;;
61373;SDS011;47242;48.158;-1.586;2023-03-11T09:25:35;4.20;;;2.50;;
61373;SDS011;47242;48.158;-1.586;2023-03-11T09:28:01;5.28;;;3.05;;
61373;SDS011;47242;48.158;-1.586;2023-03-11T09:30:27;4.13;;;2.90;;
61373;SDS011;47242;48.158;-1.586;2023-03-11T09:32:52;4.50;;;2.60;;
61373;SDS011;47242;48.158;-1.586;2023-03-11T09:35:18;4.70;;;2.92;;
61373;SDS011;47242;48.158;-1.586;2023-03-11T09:37:43;5.03;;;2.55;;
61373;SDS011;47242;48.158;-1.586;2023-03-11T09:40:11;3.65;;;2.25;;
61373;SDS011;47242;48.158;-1.586;2023-03-11T09:43:02;7.15;;;3.72;;
61373;SDS011;47242;48.158;-1.586;2023-03-11T09:46:33;5.97;;;2.97;;
61373;SDS011;47242;48.158;-1.586;2023-03-11T09:49:18;6.68;;;2.70;;
61373;SDS011;47242;48.158;-1.586;2023-03-11T09:52:11;7.13;;;4.43;;
61373;SDS011;47242;48.158;-1.586;2023-03-11T09:54:41;7.10;;;4.30;;
61373;SDS011;47242;48.158;-1.586;2023-03-11T09:57:11;3.78;;;2.85;;
61373;SDS011;47242;48.158;-1.586;2023-03-11T09:59:49;2.78;;;1.92;;
61373;SDS011;47242;48.158;-1.586;2023-03-11T10:02:19;4.18;;;2.90;;
61373;SDS011;47242;48.158;-1.586;2023-03-11T10:10:12;4.45;;;2.88;;
61373;SDS011;47242;48.158;-1.586;2023-03-11T10:23:32;3.15;;;1.80;;
61373;SDS011;47242;48.158;-1.586;2023-03-11T10:26:20;3.95;;;1.70;;
61373;SDS011;47242;48.158;-1.586;2023-03-11T10:29:02;2.15;;;1.67;;
61373;SDS011;47242;48.158;-1.586;2023-03-11T10:31:53;2.17;;;1.48;;
61373;SDS011;47242;48.158;-1.586;2023-03-11T10:34:26;2.00;;;1.65;;
61373;SDS011;47242;48.158;-1.586;2023-03-11T10:37:02;2.83;;;1.90;;
61373;SDS011;47242;48.158;-1.586;2023-03-11T10:39:34;2.08;;;1.52;;
61373;SDS011;47242;48.158;-1.586;2023-03-11T10:42:04;3.20;;;2.08;;
61373;SDS011;47242;48.158;-1.586;2023-03-11T10:44:35;2.70;;;1.80;;
61373;SDS011;47242;48.158;-1.586;2023-03-11T10:47:03;1.92;;;1.40;;
61373;SDS011;47242;48.158;-1.586;2023-03-11T10:49:30;2.08;;;1.60;;
61373;SDS011;47242;48.158;-1.586;2023-03-11T10:51:56;3.70;;;1.38;;
61373;SDS011;47242;48.158;-1.586;2023-03-11T10:54:33;2.22;;;1.45;;
61373;SDS011;47242;48.158;-1.586;2023-03-11T10:57:03;2.55;;;2.30;;
61373;SDS011;47242;48.158;-1.586;2023-03-11T11:02:48;2.53;;;2.33;;
61373;SDS011;47242;48.158;-1.586;2023-03-11T11:08:29;1.83;;;1.50;;
61373;SDS011;47242;48.158;-1.586;2023-03-11T11:10:37;2.83;;;1.90;;
61373;SDS011;47242;48.158;-1.586;2023-03-11T11:13:15;3.30;;;1.70;;
61373;SDS011;47242;48.158;-1.586;2023-03-11T11:15:51;1.85;;;1.63;;
61373;SDS011;47242;48.158;-1.586;2023-03-11T11:18:23;3.40;;;1.67;;
61373;SDS011;47242;48.158;-1.586;2023-03-11T11:23:24;1.85;;;1.30;;
61373;SDS011;47242;48.158;-1.586;2023-03-11T11:25:56;2.20;;;1.50;;
61373;SDS011;47242;48.158;-1.586;2023-03-11T11:28:25;3.50;;;1.92;;
61373;SDS011;47242;48.158;-1.586;2023-03-11T11:30:54;1.70;;;1.30;;
61373;SDS011;47242;48.158;-1.586;2023-03-11T11:35:59;4.63;;;3.03;;
61373;SDS011;47242;48.158;-1.586;2023-03-11T11:38:27;4.32;;;1.95;;
61373;SDS011;47242;48.158;-1.586;2023-03-11T11:40:56;2.35;;;1.90;;
61373;SDS011;47242;48.158;-1.586;2023-03-11T11:46:10;3.38;;;1.80;;
61373;SDS011;47242;48.158;-1.586;2023-03-11T11:51:20;3.00;;;1.73;;
61373;SDS011;47242;48.158;-1.586;2023-03-11T11:56:23;3.63;;;1.55;;
61373;SDS011;47242;48.158;-1.586;2023-03-11T11:58:50;3.97;;;2.70;;
61373;SDS011;47242;48.158;-1.586;2023-03-11T12:01:19;1.92;;;1.55;;
61373;SDS011;47242;48.158;-1.586;2023-03-11T12:17:40;2.38;;;1.52;;
61373;SDS011;47242;48.158;-1.586;2023-03-11T12:23:12;1.90;;;1.35;;
61373;SDS011;47242;48.158;-1.586;2023-03-11T12:25:55;2.13;;;1.27;;
61373;SDS011;47242;48.158;-1.586;2023-03-11T12:28:32;1.60;;;1.23;;
61373;SDS011;47242;48.158;-1.586;2023-03-11T12:31:15;1.50;;;1.30;;
61373;SDS011;47242;48.158;-1.586;2023-03-11T12:33:54;2.13;;;1.45;;
61373;SDS011;47242;48.158;-1.586;2023-03-11T12:38:53;2.00;;;1.50;;
61373;SDS011;47242;48.158;-1.586;2023-03-11T12:46:20;2.00;;;1.67;;
61373;SDS011;47242;48.158;-1.586;2023-03-11T12:49:12;1.83;;;1.65;;
61373;SDS011;47242;48.158;-1.586;2023-03-11T12:51:39;2.30;;;1.90;;
61373;SDS011;47242;48.158;-1.586;2023-03-11T12:55:23;2.10;;;1.55;;
61373;SDS011;47242;48.158;-1.586;2023-03-11T12:59:34;2.38;;;1.77;;
61373;SDS011;47242;48.158;-1.586;2023-03-11T13:02:28;3.08;;;2.15;;
61373;SDS011;47242;48.158;-1.586;2023-03-11T13:05:16;5.00;;;2.22;;
61373;SDS011;47242;48.158;-1.586;2023-03-11T13:10:49;3.67;;;2.30;;
61373;SDS011;47242;48.158;-1.586;2023-03-11T13:15:57;4.10;;;2.53;;
61373;SDS011;47242;48.158;-1.586;2023-03-11T13:18:43;3.67;;;2.35;;
61373;SDS011;47242;48.158;-1.586;2023-03-11T13:23:52;6.10;;;3.45;;
61373;SDS011;47242;48.158;-1.586;2023-03-11T13:27:21;7.07;;;3.22;;
61373;SDS011;47242;48.158;-1.586;2023-03-11T13:35:32;4.50;;;2.67;;
61373;SDS011;47242;48.158;-1.586;2023-03-11T13:41:21;4.70;;;3.45;;
61373;SDS011;47242;48.158;-1.586;2023-03-11T13:43:59;5.10;;;4.00;;
61373;SDS011;47242;48.158;-1.586;2023-03-11T13:46:42;6.18;;;3.78;;
61373;SDS011;47242;48.158;-1.586;2023-03-11T13:51:48;6.88;;;4.32;;
61373;SDS011;47242;48.158;-1.586;2023-03-11T13:56:58;5.07;;;3.95;;
61373;SDS011;47242;48.158;-1.586;2023-03-11T13:59:30;7.00;;;4.65;;
61373;SDS011;47242;48.158;-1.586;2023-03-11T14:01:59;6.70;;;4.63;;
61373;SDS011;47242;48.158;-1.586;2023-03-11T14:04:26;6.20;;;4.53;;
61373;SDS011;47242;48.158;-1.586;2023-03-11T14:06:56;8.73;;;4.22;;
61373;SDS011;47242;48.158;-1.586;2023-03-11T14:09:25;7.95;;;4.50;;
61373;SDS011;47242;48.158;-1.586;2023-03-11T14:11:52;6.70;;;4.72;;
61373;SDS011;47242;48.158;-1.586;2023-03-11T14:14:38;9.43;;;4.85;;
61373;SDS011;47242;48.158;-1.586;2023-03-11T14:17:20;7.38;;;5.05;;
61373;SDS011;47242;48.158;-1.586;2023-03-11T14:22:44;8.32;;;5.95;;
61373;SDS011;47242;48.158;-1.586;2023-03-11T14:25:15;7.55;;;4.90;;
61373;SDS011;47242;48.158;-1.586;2023-03-11T14:27:50;10.55;;;5.07;;
61373;SDS011;47242;48.158;-1.586;2023-03-11T14:32:53;7.85;;;5.40;;
61373;SDS011;47242;48.158;-1.586;2023-03-11T14:35:27;10.13;;;5.25;;
61373;SDS011;47242;48.158;-1.586;2023-03-11T14:37:53;10.20;;;5.85;;
61373;SDS011;47242;48.158;-1.586;2023-03-11T14:42:47;10.23;;;5.72;;
61373;SDS011;47242;48.158;-1.586;2023-03-11T14:50:24;9.27;;;5.97;;
61373;SDS011;47242;48.158;-1.586;2023-03-11T14:55:34;11.38;;;6.75;;
61373;SDS011;47242;48.158;-1.586;2023-03-11T14:58:14;10.43;;;5.90;;
61373;SDS011;47242;48.158;-1.586;2023-03-11T15:00:49;11.02;;;6.13;;
61373;SDS011;47242;48.158;-1.586;2023-03-11T15:05:51;10.20;;;6.00;;
61373;SDS011;47242;48.158;-1.586;2023-03-11T15:08:29;12.65;;;5.85;;
61373;SDS011;47242;48.158;-1.586;2023-03-11T15:11:20;11.00;;;6.25;;
61373;SDS011;47242;48.158;-1.586;2023-03-11T15:13:47;16.00;;;6.55;;
61373;SDS011;47242;48.158;-1.586;2023-03-11T15:16:22;11.27;;;6.45;;
61373;SDS011;47242;48.158;-1.586;2023-03-11T15:18:52;13.15;;;5.75;;
61373;SDS011;47242;48.158;-1.586;2023-03-11T15:21:19;10.68;;;6.45;;
61373;SDS011;47242;48.158;-1.586;2023-03-11T15:23:48;11.57;;;6.85;;
61373;SDS011;47242;48.158;-1.586;2023-03-11T15:28:52;14.70;;;7.53;;
61373;SDS011;47242;48.158;-1.586;2023-03-11T15:33:45;17.85;;;9.23;;
61373;SDS011;47242;48.158;-1.586;2023-03-11T15:36:28;15.00;;;7.95;;
61373;SDS011;47242;48.158;-1.586;2023-03-11T15:39:09;11.43;;;6.15;;
61373;SDS011;47242;48.158;-1.586;2023-03-11T15:41:56;10.52;;;4.97;;
61373;SDS011;47242;48.158;-1.586;2023-03-11T15:44:37;9.75;;;5.03;;
61373;SDS011;47242;48.158;-1.586;2023-03-11T15:47:33;11.68;;;4.85;;
61373;SDS011;47242;48.158;-1.586;2023-03-11T15:52:48;12.90;;;4.70;;
61373;SDS011;47242;48.158;-1.586;2023-03-11T15:55:14;9.70;;;4.88;;
61373;SDS011;47242;48.158;-1.586;2023-03-11T15:57:40;9.48;;;4.13;;
61373;SDS011;47242;48.158;-1.586;2023-03-11T16:00:14;9.18;;;3.85;;
61373;SDS011;47242;48.158;-1.586;2023-03-11T16:02:43;6.53;;;4.20;;
61373;SDS011;47242;48.158;-1.586;2023-03-11T16:05:21;9.85;;;4.28;;
61373;SDS011;47242;48.158;-1.586;2023-03-11T16:07:49;6.63;;;4.13;;
61373;SDS011;47242;48.158;-1.586;2023-03-11T16:10:24;7.90;;;4.10;;
61373;SDS011;47242;48.158;-1.586;2023-03-11T16:12:52;7.05;;;4.22;;
61373;SDS011;47242;48.158;-1.586;2023-03-11T16:15:23;11.35;;;3.95;;
61373;SDS011;47242;48.158;-1.586;2023-03-11T16:17:55;5.55;;;3.92;;
61373;SDS011;47242;48.158;-1.586;2023-03-11T16:20:23;8.50;;;4.85;;
61373;SDS011;47242;48.158;-1.586;2023-03-11T16:22:51;11.75;;;5.13;;
61373;SDS011;47242;48.158;-1.586;2023-03-11T16:25:38;8.23;;;4.95;;
61373;SDS011;47242;48.158;-1.586;2023-03-11T16:28:04;10.38;;;5.20;;
61373;SDS011;47242;48.158;-1.586;2023-03-11T16:30:31;8.70;;;5.13;;
61373;SDS011;47242;48.158;-1.586;2023-03-11T16:32:58;11.63;;;5.32;;
61373;SDS011;47242;48.158;-1.586;2023-03-11T16:35:25;10.30;;;5.15;;
61373;SDS011;47242;48.158;-1.586;2023-03-11T16:37:53;12.60;;;5.70;;
61373;SDS011;47242;48.158;-1.586;2023-03-11T16:40:20;8.27;;;5.55;;
61373;SDS011;47242;48.158;-1.586;2023-03-11T16:43:10;13.18;;;5.70;;
61373;SDS011;47242;48.158;-1.586;2023-03-11T16:45:37;8.32;;;4.57;;
61373;SDS011;47242;48.158;-1.586;2023-03-11T16:48:03;9.75;;;4.43;;
61373;SDS011;47242;48.158;-1.586;2023-03-11T16:50:29;10.02;;;4.07;;
61373;SDS011;47242;48.158;-1.586;2023-03-11T16:52:56;11.70;;;5.15;;
61373;SDS011;47242;48.158;-1.586;2023-03-11T16:55:23;10.95;;;4.70;;
61373;SDS011;47242;48.158;-1.586;2023-03-11T17:00:20;8.90;;;4.20;;
61373;SDS011;47242;48.158;-1.586;2023-03-11T17:02:46;9.18;;;4.28;;
61373;SDS011;47242;48.158;-1.586;2023-03-11T17:05:11;7.55;;;4.25;;
61373;SDS011;47242;48.158;-1.586;2023-03-11T17:07:37;9.10;;;4.07;;
61373;SDS011;47242;48.158;-1.586;2023-03-11T17:10:03;9.35;;;4.07;;
61373;SDS011;47242;48.158;-1.586;2023-03-11T17:12:30;12.38;;;4.43;;
61373;SDS011;47242;48.158;-1.586;2023-03-11T17:14:55;7.45;;;4.40;;
61373;SDS011;47242;48.158;-1.586;2023-03-11T17:17:21;6.60;;;4.03;;
61373;SDS011;47242;48.158;-1.586;2023-03-11T17:19:47;7.18;;;4.13;;
61373;SDS011;47242;48.158;-1.586;2023-03-11T17:22:13;8.32;;;3.72;;
61373;SDS011;47242;48.158;-1.586;2023-03-11T17:24:39;9.02;;;4.57;;
61373;SDS011;47242;48.158;-1.586;2023-03-11T17:27:05;11.38;;;4.70;;
61373;SDS011;47242;48.158;-1.586;2023-03-11T17:29:31;8.77;;;4.25;;
61373;SDS011;47242;48.158;-1.586;2023-03-11T17:31:58;6.95;;;3.90;;
61373;SDS011;47242;48.158;-1.586;2023-03-11T17:34:24;11.50;;;4.70;;
61373;SDS011;47242;48.158;-1.586;2023-03-11T17:36:50;8.73;;;3.95;;
61373;SDS011;47242;48.158;-1.586;2023-03-11T17:39:15;9.30;;;4.07;;
61373;SDS011;47242;48.158;-1.586;2023-03-11T17:41:41;9.32;;;4.00;;
61373;SDS011;47242;48.158;-1.586;2023-03-11T17:44:07;8.82;;;4.57;;
61373;SDS011;47242;48.158;-1.586;2023-03-11T17:46:34;14.88;;;5.90;;
61373;SDS011;47242;48.158;-1.586;2023-03-11T17:49:00;10.75;;;5.97;;
61373;SDS011;47242;48.158;-1.586;2023-03-11T17:51:26;11.70;;;4.60;;
61373;SDS011;47242;48.158;-1.586;2023-03-11T17:53:52;10.10;;;5.22;;
61373;SDS011;47242;48.158;-1.586;2023-03-11T17:56:19;14.00;;;5.72;;
61373;SDS011;47242;48.158;-1.586;2023-03-11T17:58:46;17.95;;;6.00;;
61373;SDS011;47242;48.158;-1.586;2023-03-11T18:01:13;15.13;;;5.35;;
61373;SDS011;47242;48.158;-1.586;2023-03-11T18:03:41;22.40;;;8.00;;
61373;SDS011;47242;48.158;-1.586;2023-03-11T18:06:07;18.20;;;6.82;;
61373;SDS011;47242;48.158;-1.586;2023-03-11T18:08:33;13.85;;;6.18;;
61373;SDS011;47242;48.158;-1.586;2023-03-11T18:11:01;12.13;;;4.85;;
61373;SDS011;47242;48.158;-1.586;2023-03-11T18:13:29;9.63;;;4.72;;
61373;SDS011;47242;48.158;-1.586;2023-03-11T18:15:56;8.57;;;3.17;;
61373;SDS011;47242;48.158;-1.586;2023-03-11T18:18:27;6.63;;;2.33;;
61373;SDS011;47242;48.158;-1.586;2023-03-11T18:20:53;8.25;;;2.80;;
61373;SDS011;47242;48.158;-1.586;2023-03-11T18:23:19;8.80;;;4.10;;
61373;SDS011;47242;48.158;-1.586;2023-03-11T18:25:49;13.15;;;4.65;;
61373;SDS011;47242;48.158;-1.586;2023-03-11T18:28:15;11.80;;;6.18;;
61373;SDS011;47242;48.158;-1.586;2023-03-11T18:30:41;20.67;;;9.27;;
61373;SDS011;47242;48.158;-1.586;2023-03-11T18:33:07;10.27;;;4.97;;
61373;SDS011;47242;48.158;-1.586;2023-03-11T18:35:32;12.57;;;4.32;;
61373;SDS011;47242;48.158;-1.586;2023-03-11T18:37:58;11.45;;;3.65;;
61373;SDS011;47242;48.158;-1.586;2023-03-11T18:40:24;8.35;;;3.28;;
61373;SDS011;47242;48.158;-1.586;2023-03-11T18:42:51;10.70;;;3.60;;
61373;SDS011;47242;48.158;-1.586;2023-03-11T18:45:17;13.70;;;4.03;;
61373;SDS011;47242;48.158;-1.586;2023-03-11T18:47:43;10.52;;;3.15;;
61373;SDS011;47242;48.158;-1.586;2023-03-11T18:50:09;12.60;;;3.45;;
61373;SDS011;47242;48.158;-1.586;2023-03-11T18:52:35;12.40;;;2.88;;
61373;SDS011;47242;48.158;-1.586;2023-03-11T18:55:01;12.63;;;3.05;;
61373;SDS011;47242;48.158;-1.586;2023-03-11T18:57:26;7.65;;;2.78;;
61373;SDS011;47242;48.158;-1.586;2023-03-11T18:59:52;13.98;;;2.58;;
61373;SDS011;47242;48.158;-1.586;2023-03-11T19:02:18;14.63;;;3.15;;
61373;SDS011;47242;48.158;-1.586;2023-03-11T19:04:44;13.45;;;3.17;;
61373;SDS011;47242;48.158;-1.586;2023-03-11T19:07:10;12.32;;;3.47;;
61373;SDS011;47242;48.158;-1.586;2023-03-11T19:09:36;13.85;;;3.72;;
61373;SDS011;47242;48.158;-1.586;2023-03-11T19:12:02;7.97;;;2.83;;
61373;SDS011;47242;48.158;-1.586;2023-03-11T19:14:27;15.15;;;3.13;;
61373;SDS011;47242;48.158;-1.586;2023-03-11T19:16:53;11.15;;;2.92;;
61373;SDS011;47242;48.158;-1.586;2023-03-11T19:19:19;13.05;;;3.58;;
61373;SDS011;47242;48.158;-1.586;2023-03-11T19:21:44;12.73;;;3.63;;
61373;SDS011;47242;48.158;-1.586;2023-03-11T19:24:11;21.20;;;4.68;;
61373;SDS011;47242;48.158;-1.586;2023-03-11T19:26:37;17.55;;;7.68;;
61373;SDS011;47242;48.158;-1.586;2023-03-11T19:29:04;14.30;;;6.50;;
61373;SDS011;47242;48.158;-1.586;2023-03-11T19:31:31;20.95;;;7.72;;
61373;SDS011;47242;48.158;-1.586;2023-03-11T19:33:56;49.72;;;18.85;;
61373;SDS011;47242;48.158;-1.586;2023-03-11T19:36:23;64.80;;;25.40;;
61373;SDS011;47242;48.158;-1.586;2023-03-11T19:38:49;32.72;;;13.30;;
61373;SDS011;47242;48.158;-1.586;2023-03-11T19:41:16;23.77;;;9.40;;
61373;SDS011;47242;48.158;-1.586;2023-03-11T19:43:43;26.17;;;9.88;;
61373;SDS011;47242;48.158;-1.586;2023-03-11T19:46:11;32.95;;;11.52;;
61373;SDS011;47242;48.158;-1.586;2023-03-11T19:48:38;25.35;;;11.00;;
61373;SDS011;47242;48.158;-1.586;2023-03-11T19:51:04;31.60;;;11.07;;
61373;SDS011;47242;48.158;-1.586;2023-03-11T19:53:30;33.95;;;11.40;;
61373;SDS011;47242;48.158;-1.586;2023-03-11T19:55:57;27.15;;;9.60;;
61373;SDS011;47242;48.158;-1.586;2023-03-11T19:58:23;23.80;;;9.55;;
61373;SDS011;47242;48.158;-1.586;2023-03-11T20:00:50;28.58;;;8.35;;
61373;SDS011;47242;48.158;-1.586;2023-03-11T20:03:17;20.60;;;7.95;;
61373;SDS011;47242;48.158;-1.586;2023-03-11T20:05:45;23.40;;;7.57;;
61373;SDS011;47242;48.158;-1.586;2023-03-11T20:08:12;16.33;;;6.05;;
61373;SDS011;47242;48.158;-1.586;2023-03-11T20:10:42;17.60;;;5.68;;
61373;SDS011;47242;48.158;-1.586;2023-03-11T20:13:10;12.75;;;3.53;;
61373;SDS011;47242;48.158;-1.586;2023-03-11T20:15:36;18.05;;;5.68;;
61373;SDS011;47242;48.158;-1.586;2023-03-11T20:18:02;21.45;;;5.07;;
61373;SDS011;47242;48.158;-1.586;2023-03-11T20:20:29;18.77;;;5.50;;
61373;SDS011;47242;48.158;-1.586;2023-03-11T20:22:55;26.52;;;5.18;;
61373;SDS011;47242;48.158;-1.586;2023-03-11T20:25:21;17.98;;;4.55;;
61373;SDS011;47242;48.158;-1.586;2023-03-11T20:27:48;19.45;;;5.07;;
61373;SDS011;47242;48.158;-1.586;2023-03-11T20:30:15;20.98;;;5.47;;
61373;SDS011;47242;48.158;-1.586;2023-03-11T20:32:44;27.90;;;5.15;;
61373;SDS011;47242;48.158;-1.586;2023-03-11T20:35:10;25.95;;;5.70;;
61373;SDS011;47242;48.158;-1.586;2023-03-11T20:37:38;26.45;;;6.43;;
61373;SDS011;47242;48.158;-1.586;2023-03-11T20:40:05;21.55;;;6.47;;
61373;SDS011;47242;48.158;-1.586;2023-03-11T20:42:31;16.92;;;5.40;;
61373;SDS011;47242;48.158;-1.586;2023-03-11T20:44:57;19.02;;;4.97;;
61373;SDS011;47242;48.158;-1.586;2023-03-11T20:47:22;19.88;;;4.95;;
61373;SDS011;47242;48.158;-1.586;2023-03-11T20:49:48;30.45;;;6.20;;
61373;SDS011;47242;48.158;-1.586;2023-03-11T20:52:14;16.88;;;5.82;;
61373;SDS011;47242;48.158;-1.586;2023-03-11T20:54:39;18.48;;;6.03;;
61373;SDS011;47242;48.158;-1.586;2023-03-11T20:57:05;19.00;;;6.63;;
61373;SDS011;47242;48.158;-1.586;2023-03-11T20:59:31;19.65;;;5.38;;
61373;SDS011;47242;48.158;-1.586;2023-03-11T21:01:57;34.33;;;5.43;;
61373;SDS011;47242;48.158;-1.586;2023-03-11T21:04:23;24.02;;;6.07;;
61373;SDS011;47242;48.158;-1.586;2023-03-11T21:06:49;23.40;;;5.82;;
61373;SDS011;47242;48.158;-1.586;2023-03-11T21:09:19;32.80;;;5.72;;
61373;SDS011;47242;48.158;-1.586;2023-03-11T21:11:45;23.88;;;4.45;;
61373;SDS011;47242;48.158;-1.586;2023-03-11T21:14:13;19.20;;;5.15;;
61373;SDS011;47242;48.158;-1.586;2023-03-11T21:16:40;24.45;;;5.45;;
61373;SDS011;47242;48.158;-1.586;2023-03-11T21:19:06;19.60;;;5.70;;
61373;SDS011;47242;48.158;-1.586;2023-03-11T21:21:34;19.05;;;5.40;;
61373;SDS011;47242;48.158;-1.586;2023-03-11T21:24:00;22.13;;;5.82;;
61373;SDS011;47242;48.158;-1.586;2023-03-11T21:26:26;22.30;;;5.53;;
61373;SDS011;47242;48.158;-1.586;2023-03-11T21:28:52;24.27;;;4.93;;
61373;SDS011;47242;48.158;-1.586;2023-03-11T21:31:19;22.73;;;6.07;;
61373;SDS011;47242;48.158;-1.586;2023-03-11T21:33:46;22.63;;;4.93;;
61373;SDS011;47242;48.158;-1.586;2023-03-11T21:36:13;25.38;;;5.13;;
61373;SDS011;47242;48.158;-1.586;2023-03-11T21:38:40;22.60;;;5.57;;
61373;SDS011;47242;48.158;-1.586;2023-03-11T21:41:13;25.05;;;4.75;;
61373;SDS011;47242;48.158;-1.586;2023-03-11T21:43:40;20.20;;;5.65;;
61373;SDS011;47242;48.158;-1.586;2023-03-11T21:46:07;22.15;;;5.38;;
61373;SDS011;47242;48.158;-1.586;2023-03-11T21:48:34;19.23;;;4.97;;
61373;SDS011;47242;48.158;-1.586;2023-03-11T21:51:00;26.10;;;5.57;;
61373;SDS011;47242;48.158;-1.586;2023-03-11T21:53:26;31.20;;;4.90;;
61373;SDS011;47242;48.158;-1.586;2023-03-11T21:55:54;28.15;;;4.85;;
61373;SDS011;47242;48.158;-1.586;2023-03-11T21:58:20;18.33;;;4.85;;
61373;SDS011;47242;48.158;-1.586;2023-03-11T22:00:45;19.90;;;4.55;;
61373;SDS011;47242;48.158;-1.586;2023-03-11T22:03:11;18.05;;;4.47;;
61373;SDS011;47242;48.158;-1.586;2023-03-11T22:05:37;27.33;;;4.63;;
61373;SDS011;47242;48.158;-1.586;2023-03-11T22:08:03;18.23;;;4.13;;
61373;SDS011;47242;48.158;-1.586;2023-03-11T22:10:30;18.92;;;3.83;;